createdAt,value
2018-10-12T00:00:01.524Z,25.55
2018-10-12T00:01:06.892Z,25.27
2018-10-12T00:02:11.012Z,27.13
2018-10-12T00:03:15.072Z,23.05
2018-10-12T00:04:19.096Z,24.00
2018-10-12T00:05:23.155Z,24.35
2018-10-12T00:06:27.523Z,24.25
2018-10-12T00:07:31.532Z,22.93
2018-10-12T00:08:35.611Z,25.97
2018-10-12T00:09:39.628Z,25.27
2018-10-12T00:10:43.645Z,27.60
2018-10-12T00:11:47.666Z,25.35
2018-10-12T00:12:51.670Z,25.35
2018-10-12T00:13:55.702Z,28.80
2018-10-12T00:14:59.712Z,25.25
2018-10-12T00:16:03.807Z,26.97
2018-10-12T00:17:07.811Z,25.85
2018-10-12T00:18:11.872Z,24.98
2018-10-12T00:19:15.902Z,23.45
2018-10-12T00:20:19.908Z,22.98
2018-10-12T00:21:23.892Z,25.50
2018-10-12T00:22:27.903Z,24.20
2018-10-12T00:23:32.307Z,26.50
2018-10-12T00:24:36.304Z,24.25
2018-10-12T00:25:40.316Z,25.02
2018-10-12T00:26:44.330Z,19.17
2018-10-12T00:27:48.332Z,27.00
2018-10-12T00:28:52.331Z,25.32
2018-10-12T00:29:56.387Z,25.48
2018-10-12T00:31:00.387Z,24.57
2018-10-12T00:32:04.400Z,23.10
2018-10-12T00:33:08.461Z,27.90
2018-10-12T00:34:12.529Z,27.32
2018-10-12T00:35:16.550Z,25.35
2018-10-12T00:36:20.550Z,28.60
2018-10-12T00:37:24.597Z,25.30
2018-10-12T00:38:28.667Z,25.17
2018-10-12T00:39:32.695Z,25.25
2018-10-12T00:40:36.860Z,24.12
2018-10-12T00:41:40.955Z,23.20
2018-10-12T00:42:44.959Z,23.22
2018-10-12T00:43:49.043Z,24.37
2018-10-12T00:44:53.021Z,23.32
2018-10-12T00:45:57.029Z,25.25
2018-10-12T00:47:01.027Z,25.62
2018-10-12T00:48:05.012Z,24.98
2018-10-12T00:49:09.432Z,27.00
2018-10-12T00:50:13.428Z,28.10
2018-10-12T00:51:17.523Z,24.00
2018-10-12T00:52:21.550Z,24.67
2018-10-12T00:53:25.660Z,25.10
2018-10-12T00:54:29.704Z,24.27
2018-10-12T00:55:34.499Z,23.60
2018-10-12T00:56:38.579Z,21.95
2018-10-12T00:57:42.579Z,26.00
2018-10-12T00:58:46.580Z,22.58
2018-10-12T00:59:50.590Z,27.52
2018-10-12T01:00:54.584Z,26.00
2018-10-12T01:01:58.599Z,21.07
2018-10-12T01:03:02.604Z,26.25
2018-10-12T01:04:06.604Z,26.50
2018-10-12T01:05:10.594Z,24.85
2018-10-12T01:06:14.583Z,24.30
2018-10-12T01:07:18.608Z,21.95
2018-10-12T01:08:22.627Z,23.83
2018-10-12T01:09:26.796Z,23.40
2018-10-12T01:10:30.809Z,23.62
2018-10-12T01:11:34.812Z,23.60
2018-10-12T01:12:38.998Z,24.65
2018-10-12T01:13:43.135Z,21.87
2018-10-12T01:14:47.148Z,21.40
2018-10-12T01:15:51.159Z,20.57
2018-10-12T01:16:55.380Z,21.75
2018-10-12T01:17:59.399Z,21.60
2018-10-12T01:19:03.409Z,23.65
2018-10-12T01:20:07.952Z,25.20
2018-10-12T01:21:11.991Z,24.80
2018-10-12T01:22:16.049Z,24.98
2018-10-12T01:23:20.195Z,20.68
2018-10-12T01:24:24.234Z,24.00
2018-10-12T01:25:28.289Z,19.60
2018-10-12T01:26:32.337Z,25.55
2018-10-12T01:27:36.432Z,21.48
2018-10-12T01:28:40.452Z,20.43
2018-10-12T01:29:44.520Z,19.45
2018-10-12T01:30:48.527Z,22.42
2018-10-12T01:31:52.601Z,23.92
2018-10-12T01:33:02.728Z,21.77
2018-10-12T01:34:06.888Z,25.15
2018-10-12T01:35:10.882Z,21.00
2018-10-12T01:36:14.887Z,24.25
2018-10-12T01:37:19.048Z,20.05
2018-10-12T01:38:23.063Z,17.75
2018-10-12T01:39:27.144Z,19.75
2018-10-12T01:40:31.953Z,28.57
2018-10-12T01:41:36.080Z,23.55
2018-10-12T01:42:40.096Z,20.40
2018-10-12T01:43:44.127Z,20.12
2018-10-12T01:44:48.174Z,19.02
2018-10-12T01:45:52.171Z,20.45
2018-10-12T01:46:56.183Z,20.85
2018-10-12T01:48:00.192Z,20.05
2018-10-12T01:49:04.213Z,18.65
2018-10-12T01:50:08.260Z,20.10
2018-10-12T01:51:12.284Z,21.20
2018-10-12T01:52:16.343Z,20.60
2018-10-12T01:53:20.472Z,20.52
2018-10-12T01:54:24.594Z,19.65
2018-10-12T01:55:28.695Z,19.35
2018-10-12T01:56:32.641Z,24.43
2018-10-12T01:57:36.641Z,18.70
2018-10-12T01:58:40.721Z,23.75
2018-10-12T01:59:44.720Z,23.83
2018-10-12T02:00:49.069Z,19.48
2018-10-12T02:01:53.096Z,22.37
2018-10-12T02:02:57.121Z,22.02
2018-10-12T02:04:01.101Z,20.30
2018-10-12T02:05:05.133Z,18.25
2018-10-12T02:06:09.168Z,20.45
2018-10-12T02:07:13.252Z,20.62
2018-10-12T02:08:17.247Z,23.85
2018-10-12T02:09:21.347Z,17.00
2018-10-12T02:10:25.379Z,23.92
2018-10-12T02:11:29.412Z,17.98
2018-10-12T02:12:33.540Z,18.23
2018-10-12T02:13:37.562Z,25.10
2018-10-12T02:14:41.607Z,20.17
2018-10-12T02:15:45.862Z,19.77
2018-10-12T02:16:50.280Z,19.20
2018-10-12T02:17:54.615Z,21.82
2018-10-12T02:18:58.685Z,19.12
2018-10-12T02:20:02.683Z,22.70
2018-10-12T02:21:06.920Z,22.05
2018-10-12T02:22:10.995Z,19.95
2018-10-12T02:23:15.021Z,16.77
2018-10-12T02:24:19.054Z,17.82
2018-10-12T02:25:23.124Z,16.87
2018-10-12T02:26:27.287Z,15.18
2018-10-12T02:27:31.329Z,17.15
2018-10-12T02:28:36.302Z,18.25
2018-10-12T02:29:40.294Z,18.45
2018-10-12T02:30:44.363Z,18.87
2018-10-12T02:31:48.388Z,22.55
2018-10-12T02:32:52.569Z,17.40
2018-10-12T02:33:56.737Z,17.82
2018-10-12T02:35:00.959Z,21.33
2018-10-12T02:36:04.964Z,20.68
2018-10-12T02:37:08.974Z,16.32
2018-10-12T02:38:13.020Z,19.23
2018-10-12T02:39:17.067Z,20.37
2018-10-12T02:40:21.200Z,16.23
2018-10-12T02:41:25.168Z,20.50
2018-10-12T02:42:29.224Z,19.17
2018-10-12T02:43:33.247Z,20.97
2018-10-12T02:44:37.311Z,16.97
2018-10-12T02:45:41.567Z,16.62
2018-10-12T02:46:45.591Z,16.32
2018-10-12T02:47:49.655Z,16.57
2018-10-12T02:48:53.688Z,18.57
2018-10-12T02:49:57.779Z,17.67
2018-10-12T02:51:01.816Z,16.75
2018-10-12T02:52:05.849Z,15.55
2018-10-12T02:53:09.925Z,20.20
2018-10-12T02:54:13.955Z,17.40
2018-10-12T02:55:18.169Z,17.90
2018-10-12T02:56:23.132Z,19.30
2018-10-12T02:57:27.131Z,20.92
2018-10-12T02:58:31.247Z,17.75
2018-10-12T02:59:35.307Z,19.10
2018-10-12T03:00:39.335Z,18.23
2018-10-12T03:01:43.479Z,19.65
2018-10-12T03:02:47.487Z,20.65
2018-10-12T03:03:52.299Z,21.25
2018-10-12T03:04:56.292Z,15.28
2018-10-12T03:06:00.271Z,17.10
2018-10-12T03:07:04.255Z,17.45
2018-10-12T03:08:08.255Z,16.30
2018-10-12T03:09:12.766Z,18.37
2018-10-12T03:10:16.789Z,17.10
2018-10-12T03:11:20.779Z,17.17
2018-10-12T03:12:24.920Z,16.85
2018-10-12T03:13:28.887Z,13.25
2018-10-12T03:14:32.943Z,20.97
2018-10-12T03:15:36.933Z,16.20
2018-10-12T03:16:40.907Z,14.07
2018-10-12T03:17:44.916Z,19.80
2018-10-12T03:18:48.892Z,16.07
2018-10-12T03:19:52.864Z,15.40
2018-10-12T03:20:56.893Z,14.63
2018-10-12T03:22:00.906Z,18.07
2018-10-12T03:23:04.866Z,17.45
2018-10-12T03:24:08.823Z,14.30
2018-10-12T03:25:12.801Z,17.20
2018-10-12T03:26:16.824Z,22.10
2018-10-12T03:27:20.808Z,16.67
2018-10-12T03:28:27.186Z,16.25
2018-10-12T03:29:31.185Z,13.98
2018-10-12T03:30:35.188Z,20.75
2018-10-12T03:31:39.184Z,15.75
2018-10-12T03:32:43.184Z,15.60
2018-10-12T03:33:47.196Z,17.73
2018-10-12T03:34:51.286Z,13.83
2018-10-12T03:35:55.524Z,15.88
2018-10-12T03:36:59.562Z,14.05
2018-10-12T03:38:03.528Z,18.05
2018-10-12T03:39:07.973Z,14.93
2018-10-12T03:40:12.024Z,16.27
2018-10-12T03:41:16.072Z,16.82
2018-10-12T03:42:20.064Z,14.10
2018-10-12T03:43:24.151Z,15.15
2018-10-12T03:44:28.139Z,18.50
2018-10-12T03:45:32.131Z,14.45
2018-10-12T03:46:36.112Z,13.13
2018-10-12T03:47:40.156Z,13.62
2018-10-12T03:48:44.140Z,14.60
2018-10-12T03:49:48.238Z,14.25
2018-10-12T03:50:52.171Z,20.10
2018-10-12T03:51:56.250Z,15.53
2018-10-12T03:53:00.187Z,13.93
2018-10-12T03:54:04.176Z,14.65
2018-10-12T03:55:08.156Z,14.85
2018-10-12T03:56:12.363Z,18.48
2018-10-12T03:57:16.407Z,15.32
2018-10-12T03:58:20.411Z,18.45
2018-10-12T03:59:24.496Z,17.60
2018-10-12T04:00:28.599Z,13.30
2018-10-12T04:01:32.606Z,16.40
2018-10-12T04:02:36.929Z,17.40
2018-10-12T04:03:41.232Z,19.23
2018-10-12T04:04:45.237Z,14.93
2018-10-12T04:05:49.346Z,14.90
2018-10-12T04:06:53.721Z,20.90
2018-10-12T04:07:57.852Z,15.20
2018-10-12T04:09:01.993Z,16.35
2018-10-12T04:10:05.989Z,13.58
2018-10-12T04:11:09.985Z,20.90
2018-10-12T04:12:14.003Z,16.97
2018-10-12T04:13:18.003Z,14.75
2018-10-12T04:14:22.051Z,15.50
2018-10-12T04:15:26.131Z,18.75
2018-10-12T04:16:30.131Z,14.65
2018-10-12T04:17:34.159Z,16.50
2018-10-12T04:18:38.183Z,14.28
2018-10-12T04:19:42.247Z,21.62
2018-10-12T04:20:46.219Z,17.20
2018-10-12T04:21:50.286Z,19.32
2018-10-12T04:22:54.301Z,13.93
2018-10-12T04:23:58.327Z,14.50
2018-10-12T04:25:02.334Z,13.28
2018-10-12T04:26:06.348Z,14.28
2018-10-12T04:27:10.397Z,12.53
2018-10-12T04:28:14.499Z,16.77
2018-10-12T04:29:18.507Z,15.93
2018-10-12T04:30:22.623Z,18.52
2018-10-12T04:31:26.637Z,17.25
2018-10-12T04:32:30.648Z,16.30
2018-10-12T04:33:34.643Z,16.17
2018-10-12T04:34:38.735Z,15.48
2018-10-12T04:35:42.797Z,14.18
2018-10-12T04:36:46.831Z,16.80
2018-10-12T04:37:50.903Z,13.25
2018-10-12T04:39:06.435Z,18.73
2018-10-12T04:40:30.454Z,15.85
2018-10-12T04:41:34.570Z,16.73
2018-10-12T04:42:38.573Z,14.10
2018-10-12T04:43:42.985Z,15.70
2018-10-12T04:44:47.048Z,25.23
2018-10-12T04:45:51.177Z,17.80
2018-10-12T04:46:55.190Z,15.38
2018-10-12T04:47:59.187Z,14.40
2018-10-12T04:49:04.339Z,13.62
2018-10-12T04:50:08.452Z,15.18
2018-10-12T04:51:25.904Z,15.43
2018-10-12T04:52:31.963Z,14.50
2018-10-12T04:53:36.196Z,16.82
2018-10-12T04:54:40.205Z,17.48
2018-10-12T04:55:44.281Z,12.65
2018-10-12T04:56:48.918Z,17.82
2018-10-12T04:57:52.932Z,20.77
2018-10-12T04:58:56.940Z,16.97
2018-10-12T05:00:00.915Z,14.47
2018-10-12T05:01:04.940Z,15.40
2018-10-12T05:02:08.903Z,14.07
2018-10-12T05:03:12.901Z,14.15
2018-10-12T05:04:16.907Z,14.03
2018-10-12T05:05:20.951Z,15.03
2018-10-12T05:06:25.145Z,21.82
2018-10-12T05:07:29.250Z,18.42
2018-10-12T05:08:33.479Z,14.85
2018-10-12T05:09:37.475Z,19.32
2018-10-12T05:10:41.603Z,14.98
2018-10-12T05:11:45.647Z,18.30
2018-10-12T05:12:49.646Z,15.63
2018-10-12T05:13:53.615Z,15.15
2018-10-12T05:14:57.736Z,18.10
2018-10-12T05:16:02.309Z,14.47
2018-10-12T05:17:06.390Z,13.70
2018-10-12T05:18:10.492Z,16.27
2018-10-12T05:19:14.420Z,16.30
2018-10-12T05:20:18.388Z,14.35
2018-10-12T05:21:22.372Z,12.82
2018-10-12T05:22:26.363Z,18.20
2018-10-12T05:23:30.531Z,18.23
2018-10-12T05:24:34.563Z,21.80
2018-10-12T05:25:38.670Z,19.70
2018-10-12T05:26:42.734Z,14.50
2018-10-12T05:27:46.873Z,14.95
2018-10-12T05:28:51.125Z,15.45
2018-10-12T05:29:55.122Z,18.62
2018-10-12T05:30:59.114Z,17.30
2018-10-12T05:32:03.096Z,21.05
2018-10-12T05:33:07.248Z,17.37
2018-10-12T05:34:11.264Z,19.37
2018-10-12T05:35:15.276Z,15.18
2018-10-12T05:36:19.280Z,22.13
2018-10-12T05:37:23.304Z,19.07
2018-10-12T05:38:28.748Z,25.45
2018-10-12T05:39:32.755Z,17.82
2018-10-12T05:40:36.803Z,14.98
2018-10-12T05:41:40.799Z,15.32
2018-10-12T05:42:44.980Z,18.07
2018-10-12T05:43:49.062Z,18.60
2018-10-12T05:44:52.999Z,18.62
2018-10-12T05:45:57.021Z,16.32
2018-10-12T05:47:01.039Z,18.17
2018-10-12T05:48:16.382Z,15.72
2018-10-12T05:49:31.648Z,18.35
2018-10-12T05:50:35.966Z,17.30
2018-10-12T05:51:40.719Z,18.35
2018-10-12T05:52:44.796Z,19.45
2018-10-12T05:53:48.791Z,22.95
2018-10-12T05:54:52.848Z,15.63
2018-10-12T05:55:57.630Z,17.80
2018-10-12T05:57:01.828Z,25.02
2018-10-12T05:58:06.292Z,25.95
2018-10-12T05:59:10.348Z,20.50
2018-10-12T06:00:14.377Z,17.23
2018-10-12T06:01:18.492Z,21.02
2018-10-12T06:02:22.730Z,16.00
2018-10-12T06:03:26.774Z,16.73
2018-10-12T06:04:30.795Z,17.00
2018-10-12T06:05:34.847Z,17.55
2018-10-12T06:06:38.936Z,18.77
2018-10-12T06:07:43.016Z,20.75
2018-10-12T06:08:47.100Z,15.55
2018-10-12T06:09:51.419Z,18.55
2018-10-12T06:10:55.263Z,15.90
2018-10-12T06:11:59.261Z,21.62
2018-10-12T06:13:03.323Z,17.00
2018-10-12T06:14:07.368Z,14.38
2018-10-12T06:15:11.437Z,20.17
2018-10-12T06:16:15.583Z,14.63
2018-10-12T06:17:19.634Z,21.85
2018-10-12T06:18:23.699Z,15.53
2018-10-12T06:19:27.747Z,16.97
2018-10-12T06:20:31.775Z,12.43
2018-10-12T06:21:35.819Z,13.53
2018-10-12T06:22:39.788Z,18.12
2018-10-12T06:23:43.831Z,27.70
2018-10-12T06:24:48.010Z,13.40
2018-10-12T06:25:52.072Z,15.98
2018-10-12T06:26:56.556Z,17.92
2018-10-12T06:28:00.692Z,18.25
2018-10-12T06:29:04.712Z,18.25
2018-10-12T06:30:09.046Z,13.85
2018-10-12T06:31:13.353Z,22.58
2018-10-12T06:32:17.400Z,16.55
2018-10-12T06:33:21.475Z,19.02
2018-10-12T06:34:25.524Z,15.70
2018-10-12T06:35:29.832Z,14.73
2018-10-12T06:36:33.900Z,18.05
2018-10-12T06:37:37.923Z,14.40
2018-10-12T06:38:41.959Z,18.70
2018-10-12T06:39:46.219Z,19.98
2018-10-12T06:40:53.072Z,16.50
2018-10-12T06:41:57.035Z,15.63
2018-10-12T06:43:01.252Z,14.00
2018-10-12T06:44:05.335Z,15.70
2018-10-12T06:45:09.364Z,15.75
2018-10-12T06:46:13.441Z,18.15
2018-10-12T06:47:17.479Z,19.25
2018-10-12T06:48:21.583Z,23.12
2018-10-12T06:49:25.583Z,14.13
2018-10-12T06:50:29.810Z,13.45
2018-10-12T06:51:33.869Z,19.57
2018-10-12T06:52:37.911Z,16.25
2018-10-12T06:53:41.981Z,14.78
2018-10-12T06:54:45.952Z,13.75
2018-10-12T06:55:49.992Z,15.85
2018-10-12T06:56:54.096Z,24.15
2018-10-12T06:57:58.372Z,16.70
2018-10-12T06:59:02.542Z,14.25
2018-10-12T07:00:06.851Z,19.73
2018-10-12T07:01:10.796Z,18.05
2018-10-12T07:02:16.355Z,17.57
2018-10-12T07:03:20.584Z,22.05
2018-10-12T07:04:24.402Z,15.40
2018-10-12T07:05:28.459Z,15.43
2018-10-12T07:06:32.524Z,17.20
2018-10-12T07:07:36.542Z,13.70
2018-10-12T07:08:40.633Z,18.75
2018-10-12T07:09:44.743Z,21.52
2018-10-12T07:10:48.777Z,15.93
2018-10-12T07:11:52.793Z,21.17
2018-10-12T07:12:56.815Z,11.93
2018-10-12T07:14:00.855Z,14.85
2018-10-12T07:15:06.252Z,16.45
2018-10-12T07:16:10.359Z,14.00
2018-10-12T07:17:14.482Z,19.12
2018-10-12T07:18:18.463Z,19.70
2018-10-12T07:19:22.516Z,20.48
2018-10-12T07:20:26.546Z,27.22
2018-10-12T07:21:30.544Z,22.35
2018-10-12T07:22:34.666Z,12.90
2018-10-12T07:23:38.654Z,25.37
2018-10-12T07:24:42.609Z,16.20
2018-10-12T07:25:46.712Z,18.17
2018-10-12T07:26:50.739Z,14.10
2018-10-12T07:27:54.772Z,15.08
2018-10-12T07:28:58.804Z,15.75
2018-10-12T07:30:02.779Z,19.27
2018-10-12T07:31:07.462Z,15.28
2018-10-12T07:32:11.412Z,14.63
2018-10-12T07:33:15.400Z,18.07
2018-10-12T07:34:19.456Z,18.90
2018-10-12T07:35:23.488Z,16.27
2018-10-12T07:36:27.800Z,13.20
2018-10-12T07:37:31.844Z,12.05
2018-10-12T07:38:35.927Z,13.25
2018-10-12T07:39:46.735Z,16.50
2018-10-12T07:40:50.759Z,11.73
2018-10-12T07:41:54.751Z,13.20
2018-10-12T07:42:58.740Z,14.95
2018-10-12T07:44:02.762Z,15.32
2018-10-12T07:45:07.106Z,14.35
2018-10-12T07:46:11.171Z,17.82
2018-10-12T07:47:15.175Z,17.23
2018-10-12T07:48:19.265Z,12.43
2018-10-12T07:49:23.305Z,16.67
2018-10-12T07:50:27.519Z,11.90
2018-10-12T07:51:31.531Z,14.65
2018-10-12T07:52:35.582Z,13.88
2018-10-12T07:53:39.555Z,13.55
2018-10-12T07:54:43.556Z,16.32
2018-10-12T07:55:47.544Z,16.80
2018-10-12T07:56:51.567Z,15.58
2018-10-12T07:57:55.601Z,17.35
2018-10-12T07:59:00.096Z,14.03
2018-10-12T08:00:04.185Z,9.00
2018-10-12T08:01:08.108Z,11.78
2018-10-12T08:02:13.052Z,12.88
2018-10-12T08:03:18.135Z,13.70
2018-10-12T08:04:22.151Z,12.63
2018-10-12T08:05:26.172Z,19.77
2018-10-12T08:06:30.225Z,11.55
2018-10-12T08:07:34.148Z,10.65
2018-10-12T08:08:38.191Z,10.90
2018-10-12T08:09:42.235Z,14.38
2018-10-12T08:10:46.204Z,10.50
2018-10-12T08:11:50.184Z,9.20
2018-10-12T08:12:54.164Z,16.20
2018-10-12T08:13:58.296Z,10.03
2018-10-12T08:15:02.177Z,11.93
2018-10-12T08:16:06.189Z,10.72
2018-10-12T08:17:10.178Z,11.68
2018-10-12T08:18:14.131Z,11.68
2018-10-12T08:19:18.128Z,11.38
2018-10-12T08:20:22.280Z,12.53
2018-10-12T08:21:26.260Z,8.83
2018-10-12T08:22:30.243Z,8.95
2018-10-12T08:23:34.280Z,11.20
2018-10-12T08:24:38.280Z,11.68
2018-10-12T08:25:42.878Z,10.03
2018-10-12T08:26:46.921Z,22.35
2018-10-12T08:27:50.949Z,13.00
2018-10-12T08:28:54.985Z,12.20
2018-10-12T08:29:59.303Z,8.98
2018-10-12T08:31:03.365Z,12.43
2018-10-12T08:32:07.355Z,11.60
2018-10-12T08:33:11.335Z,9.08
2018-10-12T08:34:15.376Z,10.90
2018-10-12T08:35:19.375Z,12.70
2018-10-12T08:36:23.440Z,10.88
2018-10-12T08:37:27.624Z,10.58
2018-10-12T08:38:31.689Z,13.75
2018-10-12T08:39:35.687Z,8.30
2018-10-12T08:40:39.694Z,10.18
2018-10-12T08:41:43.684Z,9.83
2018-10-12T08:42:47.666Z,11.90
2018-10-12T08:43:51.639Z,11.45
2018-10-12T08:44:55.641Z,15.80
2018-10-12T08:45:59.608Z,9.98
2018-10-12T08:47:03.641Z,9.50
2018-10-12T08:48:07.703Z,9.63
2018-10-12T08:49:11.709Z,13.40
2018-10-12T08:50:15.721Z,10.63
2018-10-12T08:51:19.736Z,8.35
2018-10-12T08:52:23.817Z,10.70
2018-10-12T08:53:27.899Z,10.38
2018-10-12T08:54:31.944Z,11.68
2018-10-12T08:55:36.012Z,14.10
2018-10-12T08:56:40.305Z,15.43
2018-10-12T08:57:44.589Z,14.43
2018-10-12T08:58:48.628Z,13.50
2018-10-12T08:59:52.831Z,9.43
2018-10-12T09:00:56.801Z,10.85
2018-10-12T09:02:00.779Z,10.75
2018-10-12T09:03:04.866Z,8.70
2018-10-12T09:04:08.895Z,11.45
2018-10-12T09:05:12.901Z,13.15
2018-10-12T09:06:17.003Z,8.95
2018-10-12T09:07:21.007Z,13.58
2018-10-12T09:08:25.003Z,13.65
2018-10-12T09:09:29.048Z,10.13
2018-10-12T09:10:33.020Z,11.53
2018-10-12T09:11:37.401Z,9.05
2018-10-12T09:12:41.401Z,14.03
2018-10-12T09:13:45.397Z,9.78
2018-10-12T09:14:50.763Z,13.15
2018-10-12T09:15:54.798Z,9.23
2018-10-12T09:16:58.822Z,10.98
2018-10-12T09:18:02.868Z,17.45
2018-10-12T09:19:07.016Z,12.25
2018-10-12T09:20:11.092Z,10.90
2018-10-12T09:21:15.176Z,12.90
2018-10-12T09:22:19.231Z,10.65
2018-10-12T09:23:23.272Z,12.15
2018-10-12T09:24:27.230Z,12.18
2018-10-12T09:25:31.256Z,10.95
2018-10-12T09:26:35.358Z,9.85
2018-10-12T09:27:39.379Z,9.68
2018-10-12T09:28:43.382Z,11.25
2018-10-12T09:29:47.412Z,7.30
2018-10-12T09:30:51.504Z,15.58
2018-10-12T09:31:55.636Z,17.82
2018-10-12T09:32:59.717Z,11.57
2018-10-12T09:34:03.703Z,10.25
2018-10-12T09:35:07.833Z,12.80
2018-10-12T09:36:11.884Z,9.38
2018-10-12T09:37:15.884Z,9.10
2018-10-12T09:38:19.945Z,12.10
2018-10-12T09:39:23.934Z,9.73
2018-10-12T09:40:28.010Z,8.18
2018-10-12T09:41:32.039Z,7.87
2018-10-12T09:42:36.063Z,9.60
2018-10-12T09:43:40.152Z,10.93
2018-10-12T09:44:44.155Z,16.30
2018-10-12T09:45:48.184Z,11.48
2018-10-12T09:46:52.208Z,10.85
2018-10-12T09:47:56.208Z,10.40
2018-10-12T09:49:00.223Z,11.85
2018-10-12T09:50:04.303Z,11.63
2018-10-12T09:51:08.302Z,9.33
2018-10-12T09:52:12.308Z,11.68
2018-10-12T09:53:16.365Z,13.18
2018-10-12T09:54:20.483Z,7.35
2018-10-12T09:55:24.651Z,10.58
2018-10-12T09:56:28.757Z,11.85
2018-10-12T09:57:34.616Z,11.03
2018-10-12T09:58:38.642Z,8.90
2018-10-12T09:59:42.741Z,10.48
2018-10-12T10:00:52.575Z,6.87
2018-10-12T10:02:01.876Z,15.10
2018-10-12T10:03:11.195Z,10.40
2018-10-12T10:04:18.555Z,11.03
2018-10-12T10:05:23.247Z,11.90
2018-10-12T10:06:27.322Z,14.78
2018-10-12T10:07:31.365Z,9.85
2018-10-12T10:08:35.874Z,7.50
2018-10-12T10:09:39.324Z,13.50
2018-10-12T10:10:43.372Z,18.57
2018-10-12T10:11:47.421Z,11.70
2018-10-12T10:12:51.410Z,14.23
2018-10-12T10:13:55.515Z,8.80
2018-10-12T10:14:59.455Z,13.48
2018-10-12T10:16:03.552Z,9.63
2018-10-12T10:17:07.588Z,13.32
2018-10-12T10:18:11.631Z,10.82
2018-10-12T10:19:15.729Z,10.18
2018-10-12T10:20:19.785Z,8.53
2018-10-12T10:21:24.192Z,11.83
2018-10-12T10:22:28.266Z,8.13
2018-10-12T10:23:32.212Z,13.95
2018-10-12T10:24:36.252Z,10.40
2018-10-12T10:25:40.285Z,13.72
2018-10-12T10:26:44.375Z,15.60
2018-10-12T10:27:48.365Z,14.40
2018-10-12T10:28:52.346Z,7.67
2018-10-12T10:29:56.381Z,11.22
2018-10-12T10:31:00.472Z,8.00
2018-10-12T10:32:04.468Z,10.88
2018-10-12T10:33:08.520Z,12.53
2018-10-12T10:34:12.488Z,9.20
2018-10-12T10:35:16.699Z,10.35
2018-10-12T10:36:20.981Z,16.30
2018-10-12T10:37:25.012Z,10.78
2018-10-12T10:38:29.055Z,7.53
2018-10-12T10:39:33.128Z,9.30
2018-10-12T10:40:37.198Z,11.35
2018-10-12T10:41:41.504Z,19.00
2018-10-12T10:42:45.605Z,11.30
2018-10-12T10:43:50.032Z,12.30
2018-10-12T10:44:54.135Z,9.23
2018-10-12T10:45:58.230Z,11.30
2018-10-12T10:47:02.323Z,9.70
2018-10-12T10:48:06.447Z,13.38
2018-10-12T10:49:10.515Z,22.77
2018-10-12T10:50:14.529Z,8.70
2018-10-12T10:51:18.544Z,15.68
2018-10-12T10:52:22.540Z,13.88
2018-10-12T10:53:26.676Z,12.28
2018-10-12T10:54:30.917Z,8.08
2018-10-12T10:55:34.916Z,6.42
2018-10-12T10:56:38.959Z,9.88
2018-10-12T10:57:43.115Z,8.68
2018-10-12T10:58:47.139Z,8.65
2018-10-12T10:59:51.152Z,7.90
2018-10-12T11:00:55.427Z,11.60
2018-10-12T11:01:59.409Z,6.80
2018-10-12T11:03:03.464Z,13.25
2018-10-12T11:04:08.023Z,14.25
2018-10-12T11:05:12.100Z,15.15
2018-10-12T11:06:16.383Z,10.28
2018-10-12T11:07:20.519Z,8.80
2018-10-12T11:08:24.574Z,12.37
2018-10-12T11:09:28.591Z,11.97
2018-10-12T11:10:32.694Z,10.08
2018-10-12T11:11:36.939Z,13.75
2018-10-12T11:12:41.589Z,7.65
2018-10-12T11:13:45.723Z,6.58
2018-10-12T11:14:49.765Z,10.50
2018-10-12T11:15:53.813Z,8.80
2018-10-12T11:16:58.800Z,9.40
2018-10-12T11:18:02.908Z,9.58
2018-10-12T11:19:07.132Z,7.25
2018-10-12T11:20:11.229Z,7.85
2018-10-12T11:21:15.235Z,9.80
2018-10-12T11:22:19.341Z,6.08
2018-10-12T11:23:23.370Z,6.00
2018-10-12T11:24:27.453Z,10.63
2018-10-12T11:25:31.700Z,7.03
2018-10-12T11:26:35.894Z,13.25
2018-10-12T11:27:39.955Z,5.87
2018-10-12T11:28:44.289Z,6.05
2018-10-12T11:29:48.280Z,9.05
2018-10-12T11:30:52.690Z,6.60
2018-10-12T11:31:56.960Z,8.48
2018-10-12T11:33:01.360Z,9.88
2018-10-12T11:34:05.619Z,9.23
2018-10-12T11:35:09.678Z,7.58
2018-10-12T11:36:13.744Z,6.80
2018-10-12T11:37:17.775Z,6.55
2018-10-12T11:38:21.865Z,6.53
2018-10-12T11:39:26.006Z,5.47
2018-10-12T11:40:30.124Z,8.55
2018-10-12T11:41:34.146Z,7.33
2018-10-12T11:42:49.588Z,10.88
2018-10-12T11:43:53.662Z,7.42
2018-10-12T11:44:57.756Z,6.05
2018-10-12T11:46:02.251Z,6.75
2018-10-12T11:47:06.269Z,8.68
2018-10-12T11:48:10.284Z,7.50
2018-10-12T11:49:14.416Z,16.12
2018-10-12T11:50:18.597Z,9.28
2018-10-12T11:51:22.582Z,5.53
2018-10-12T11:52:26.625Z,10.10
2018-10-12T11:53:30.784Z,5.97
2018-10-12T11:54:34.964Z,7.25
2018-10-12T11:55:39.201Z,4.55
2018-10-12T11:56:43.382Z,8.10
2018-10-12T11:57:47.354Z,9.40
2018-10-12T11:58:51.401Z,19.85
2018-10-12T11:59:55.423Z,11.57
2018-10-12T12:00:59.859Z,7.42
2018-10-12T12:02:03.936Z,7.17
2018-10-12T12:03:07.919Z,7.03
2018-10-12T12:04:11.908Z,4.95
2018-10-12T12:05:15.992Z,6.62
2018-10-12T12:06:20.134Z,5.10
2018-10-12T12:07:24.209Z,9.58
2018-10-12T12:08:28.083Z,9.53
2018-10-12T12:09:32.064Z,7.25
2018-10-12T12:10:36.107Z,5.80
2018-10-12T12:11:40.132Z,11.15
2018-10-12T12:12:44.129Z,8.33
2018-10-12T12:13:48.340Z,4.80
2018-10-12T12:14:52.354Z,7.28
2018-10-12T12:15:56.317Z,7.10
2018-10-12T12:17:00.384Z,9.20
2018-10-12T12:18:04.364Z,6.67
2018-10-12T12:19:08.351Z,8.80
2018-10-12T12:20:12.334Z,6.83
2018-10-12T12:21:16.356Z,10.03
2018-10-12T12:22:20.406Z,7.53
2018-10-12T12:23:24.803Z,6.45
2018-10-12T12:24:28.914Z,6.20
2018-10-12T12:25:33.033Z,12.05
2018-10-12T12:26:37.087Z,6.07
2018-10-12T12:27:41.226Z,7.77
2018-10-12T12:28:45.256Z,7.40
2018-10-12T12:29:49.231Z,6.50
2018-10-12T12:30:53.224Z,7.73
2018-10-12T12:31:57.212Z,13.80
2018-10-12T12:33:01.227Z,7.40
2018-10-12T12:34:05.309Z,9.43
2018-10-12T12:35:09.745Z,4.90
2018-10-12T12:36:14.253Z,3.92
2018-10-12T12:37:18.117Z,4.85
2018-10-12T12:38:22.200Z,10.60
2018-10-12T12:39:26.182Z,7.23
2018-10-12T12:40:30.216Z,7.12
2018-10-12T12:41:34.268Z,7.23
2018-10-12T12:42:38.426Z,7.20
2018-10-12T12:43:43.489Z,5.40
2018-10-12T12:44:47.467Z,9.90
2018-10-12T12:45:51.435Z,5.70
2018-10-12T12:46:55.420Z,4.10
2018-10-12T12:47:59.608Z,6.27
2018-10-12T12:49:03.591Z,6.67
2018-10-12T12:50:07.691Z,6.30
2018-10-12T12:51:13.059Z,6.73
2018-10-12T12:52:17.126Z,10.63
2018-10-12T12:53:21.075Z,6.90
2018-10-12T12:54:25.440Z,5.37
2018-10-12T12:55:29.431Z,4.10
2018-10-12T12:56:33.549Z,11.50
2018-10-12T12:57:37.529Z,3.70
2018-10-12T12:58:41.813Z,5.40
2018-10-12T12:59:45.935Z,5.97
2018-10-12T13:00:49.973Z,4.80
2018-10-12T13:01:54.231Z,7.80
2018-10-12T13:02:58.228Z,6.50
2018-10-12T13:04:02.228Z,6.40
2018-10-12T13:05:06.355Z,4.85
2018-10-12T13:06:10.384Z,5.60
2018-10-12T13:07:14.335Z,3.93
2018-10-12T13:08:18.627Z,6.90
2018-10-12T13:09:22.919Z,7.67
2018-10-12T13:10:26.891Z,9.83
2018-10-12T13:11:30.919Z,7.57
2018-10-12T13:12:34.889Z,7.50
2018-10-12T13:13:39.100Z,6.27
2018-10-12T13:14:43.321Z,4.50
2018-10-12T13:15:47.418Z,7.90
2018-10-12T13:16:51.412Z,9.10
2018-10-12T13:17:55.359Z,3.70
2018-10-12T13:18:59.392Z,5.50
2018-10-12T13:20:03.385Z,3.70
2018-10-12T13:21:07.811Z,7.00
2018-10-12T13:22:11.760Z,8.00
2018-10-12T13:23:17.333Z,13.60
2018-10-12T13:24:21.315Z,7.13
2018-10-12T13:25:25.350Z,7.53
2018-10-12T13:26:29.334Z,11.00
2018-10-12T13:27:33.404Z,7.90
2018-10-12T13:28:37.400Z,12.50
2018-10-12T13:29:41.613Z,10.00
2018-10-12T13:30:49.056Z,6.20
2018-10-12T13:31:53.104Z,6.83
2018-10-12T13:32:57.031Z,7.20
2018-10-12T13:34:01.004Z,7.17
2018-10-12T13:35:04.995Z,5.77
2018-10-12T13:36:09.223Z,11.63
2018-10-12T13:37:13.243Z,6.70
2018-10-12T13:38:17.221Z,11.23
2018-10-12T13:39:21.205Z,4.90
2018-10-12T13:40:25.194Z,9.83
2018-10-12T13:41:29.216Z,7.50
2018-10-12T13:42:33.208Z,5.20
2018-10-12T13:43:37.207Z,14.73
2018-10-12T13:44:41.280Z,11.37
2018-10-12T13:45:45.283Z,10.13
2018-10-12T13:46:49.280Z,6.47
2018-10-12T13:47:53.393Z,16.50
2018-10-12T13:48:57.325Z,10.33
2018-10-12T13:50:01.516Z,7.83
2018-10-12T13:51:05.487Z,17.20
2018-10-12T13:52:09.464Z,5.23
2018-10-12T13:53:13.463Z,4.93